createdAt,value
2023-03-29T00:02:38.465Z,6.90
2023-03-29T00:05:27.017Z,7.07
2023-03-29T00:08:02.028Z,7.28
2023-03-29T00:10:46.267Z,8.05
2023-03-29T00:13:31.413Z,6.78
2023-03-29T00:16:09.964Z,6.80
2023-03-29T00:18:46.795Z,7.30
2023-03-29T00:21:24.283Z,7.15
2023-03-29T00:24:01.225Z,7.63
2023-03-29T00:26:54.963Z,6.75
2023-03-29T00:29:35.837Z,7.40
2023-03-29T00:32:14.179Z,6.35
2023-03-29T00:34:54.337Z,7.00
2023-03-29T00:37:39.579Z,7.28
2023-03-29T00:40:21.714Z,7.32
2023-03-29T00:42:58.378Z,8.95
2023-03-29T00:45:55.624Z,9.68
2023-03-29T00:48:37.158Z,8.75
2023-03-29T00:51:25.358Z,3.38
2023-03-29T00:54:10.705Z,6.72
2023-03-29T00:57:03.648Z,3.55
2023-03-29T00:59:41.349Z,6.43
2023-03-29T01:02:43.650Z,6.22
2023-03-29T01:05:27.250Z,5.95
2023-03-29T01:08:17.161Z,5.40
2023-03-29T01:11:03.509Z,6.10
2023-03-29T01:13:45.131Z,5.53
2023-03-29T01:16:37.210Z,5.68
2023-03-29T01:19:22.396Z,5.72
2023-03-29T01:22:13.525Z,6.80
2023-03-29T01:25:15.179Z,7.22
2023-03-29T01:30:31.900Z,6.38
2023-03-29T01:33:23.536Z,3.63
2023-03-29T01:36:08.619Z,7.05
2023-03-29T01:38:50.543Z,6.05
2023-03-29T01:41:27.211Z,7.05
2023-03-29T01:44:14.404Z,6.07
2023-03-29T01:47:06.614Z,6.78
2023-03-29T01:49:58.784Z,3.90
2023-03-29T01:52:53.780Z,6.32
2023-03-29T01:55:39.660Z,5.18
2023-03-29T01:58:23.382Z,5.93
2023-03-29T02:01:21.700Z,3.72
2023-03-29T02:04:13.491Z,6.07
2023-03-29T02:06:54.461Z,5.97
2023-03-29T02:12:17.325Z,7.70
2023-03-29T02:14:52.077Z,7.10
2023-03-29T02:17:40.328Z,7.38
2023-03-29T02:20:29.689Z,7.40
2023-03-29T02:23:16.242Z,7.53
2023-03-29T02:26:03.737Z,5.15
2023-03-29T02:28:51.917Z,8.00
2023-03-29T02:31:36.573Z,8.23
2023-03-29T02:34:25.634Z,8.38
2023-03-29T02:37:07.047Z,8.50
2023-03-29T02:39:42.340Z,7.43
2023-03-29T02:42:25.218Z,6.53
2023-03-29T02:45:06.940Z,5.80
2023-03-29T02:47:47.234Z,5.15
2023-03-29T02:50:29.175Z,5.22
2023-03-29T02:53:19.886Z,4.63
2023-03-29T02:55:58.735Z,4.32
2023-03-29T02:58:39.181Z,3.67
2023-03-29T03:01:23.284Z,3.63
2023-03-29T03:04:05.853Z,3.55
2023-03-29T03:07:00.162Z,4.28
2023-03-29T03:09:55.083Z,4.20
2023-03-29T03:12:44.949Z,4.20
2023-03-29T03:15:27.244Z,2.10
2023-03-29T03:18:14.619Z,3.88
2023-03-29T03:24:03.991Z,3.42
2023-03-29T03:26:52.171Z,3.67
2023-03-29T03:29:29.479Z,4.07
2023-03-29T03:32:24.383Z,2.40
2023-03-29T03:35:32.913Z,4.00
2023-03-29T03:38:14.972Z,4.20
2023-03-29T03:41:01.463Z,4.68
2023-03-29T03:43:44.044Z,4.40
2023-03-29T03:46:33.539Z,4.60
2023-03-29T03:49:14.980Z,5.03
2023-03-29T03:51:55.364Z,5.15
2023-03-29T03:54:38.134Z,6.13
2023-03-29T03:57:35.838Z,6.32
2023-03-29T04:00:23.048Z,6.25
2023-03-29T04:06:00.257Z,5.97
2023-03-29T04:08:45.597Z,4.28
2023-03-29T04:11:40.341Z,7.18
2023-03-29T04:14:14.248Z,5.93
2023-03-29T04:17:11.452Z,7.55
2023-03-29T04:20:10.526Z,3.17
2023-03-29T04:22:55.175Z,5.20
2023-03-29T04:25:41.972Z,6.10
2023-03-29T04:28:43.329Z,6.10
2023-03-29T04:31:45.412Z,5.90
2023-03-29T04:34:28.916Z,6.82
2023-03-29T04:37:10.323Z,7.05
2023-03-29T04:40:01.717Z,7.53
2023-03-29T04:42:45.218Z,8.20
2023-03-29T04:45:25.181Z,7.85
2023-03-29T04:48:39.326Z,4.70
2023-03-29T04:51:23.077Z,8.73
2023-03-29T04:54:15.802Z,8.88
2023-03-29T04:57:17.816Z,8.13
2023-03-29T05:00:40.390Z,7.32
2023-03-29T05:03:25.403Z,7.72
2023-03-29T05:06:21.976Z,4.40
2023-03-29T05:09:00.539Z,8.27
2023-03-29T05:12:00.361Z,10.15
2023-03-29T05:14:38.694Z,10.48
2023-03-29T05:17:17.839Z,11.07
2023-03-29T05:19:55.721Z,8.90
2023-03-29T05:22:38.430Z,5.28
2023-03-29T05:25:30.316Z,3.47
2023-03-29T05:28:09.958Z,5.40
2023-03-29T05:30:49.955Z,5.28
2023-03-29T05:33:30.963Z,7.90
2023-03-29T05:36:15.270Z,9.23
2023-03-29T05:38:59.141Z,7.35
2023-03-29T05:41:39.878Z,8.30
2023-03-29T05:44:44.921Z,6.88
2023-03-29T05:47:38.257Z,8.15
2023-03-29T05:50:34.522Z,11.25
2023-03-29T05:56:07.276Z,12.65
2023-03-29T05:58:56.993Z,11.40
2023-03-29T06:01:32.627Z,12.98
2023-03-29T06:04:21.630Z,12.38
2023-03-29T06:07:18.577Z,11.63
2023-03-29T06:10:15.412Z,11.25
2023-03-29T06:12:59.191Z,7.28
2023-03-29T06:15:39.691Z,9.10
2023-03-29T06:18:21.775Z,9.32
2023-03-29T06:21:02.362Z,10.40
2023-03-29T06:23:39.473Z,8.88
2023-03-29T06:26:27.618Z,9.65
2023-03-29T06:29:20.132Z,8.90
2023-03-29T06:31:58.431Z,9.80
2023-03-29T06:35:13.035Z,7.03
2023-03-29T06:37:53.963Z,6.30
2023-03-29T06:40:54.286Z,6.82
2023-03-29T06:43:42.391Z,6.50
2023-03-29T06:46:31.975Z,5.22
2023-03-29T06:49:20.612Z,5.07
2023-03-29T06:52:29.129Z,3.97
2023-03-29T06:55:11.168Z,4.13
2023-03-29T06:58:08.862Z,4.80
2023-03-29T07:01:28.745Z,4.75
2023-03-29T07:04:54.475Z,5.55
2023-03-29T07:07:58.605Z,5.82
2023-03-29T07:10:56.056Z,5.70
2023-03-29T07:13:36.236Z,4.63
2023-03-29T07:16:25.003Z,6.03
2023-03-29T07:19:29.122Z,5.28
2023-03-29T07:22:07.775Z,5.23
2023-03-29T07:24:57.355Z,7.65
2023-03-29T07:27:35.106Z,5.85
2023-03-29T07:30:19.106Z,5.13
2023-03-29T07:32:58.661Z,4.70
2023-03-29T07:36:00.425Z,5.18
2023-03-29T07:38:44.797Z,4.75
2023-03-29T07:41:31.298Z,4.07
2023-03-29T07:44:21.893Z,5.18
2023-03-29T07:47:02.065Z,6.03
2023-03-29T07:49:39.335Z,3.92
2023-03-29T07:52:20.041Z,3.83
2023-03-29T07:55:06.407Z,4.45
2023-03-29T07:58:25.605Z,5.38
2023-03-29T08:01:12.260Z,5.65
2023-03-29T08:04:31.671Z,7.25
2023-03-29T08:07:35.133Z,7.03
2023-03-29T08:10:37.065Z,4.80
2023-03-29T08:13:28.394Z,4.47
2023-03-29T08:16:22.360Z,4.50
2023-03-29T08:19:08.091Z,3.90
2023-03-29T08:22:21.427Z,4.35
2023-03-29T08:25:29.293Z,4.75
2023-03-29T08:28:09.876Z,4.20
2023-03-29T08:30:55.957Z,4.25
2023-03-29T08:33:52.896Z,5.97
2023-03-29T08:36:55.213Z,4.55
2023-03-29T08:39:51.358Z,4.55
2023-03-29T08:43:11.690Z,4.70
2023-03-29T08:46:34.277Z,4.70
2023-03-29T08:49:23.313Z,4.68
2023-03-29T08:52:30.733Z,4.82
2023-03-29T08:55:25.936Z,4.55
2023-03-29T08:58:31.679Z,4.70
2023-03-29T09:01:15.026Z,4.38
2023-03-29T09:04:13.488Z,3.92
2023-03-29T09:07:06.716Z,3.80
2023-03-29T09:09:48.687Z,3.50
2023-03-29T09:12:55.523Z,3.00
2023-03-29T09:15:54.320Z,3.53
2023-03-29T09:19:03.267Z,3.53
2023-03-29T09:22:13.861Z,3.35
2023-03-29T09:25:10.703Z,3.50
2023-03-29T09:27:54.933Z,3.67
2023-03-29T09:30:57.382Z,3.80
2023-03-29T09:34:00.186Z,3.40
2023-03-29T09:37:06.864Z,3.35
2023-03-29T09:40:00.875Z,3.42
2023-03-29T09:43:02.018Z,2.95
2023-03-29T09:45:48.477Z,3.88
2023-03-29T09:48:32.615Z,29.42
2023-03-29T09:51:18.224Z,7.15
2023-03-29T09:54:19.975Z,4.22
2023-03-29T09:57:25.492Z,4.20
2023-03-29T10:00:07.398Z,3.75
2023-03-29T10:02:57.759Z,3.95
2023-03-29T10:05:56.838Z,4.50
2023-03-29T10:08:36.321Z,4.15
2023-03-29T10:11:24.262Z,4.30
2023-03-29T10:14:05.019Z,4.25
2023-03-29T10:16:49.539Z,3.08
2023-03-29T10:19:33.564Z,2.90
2023-03-29T10:22:24.314Z,2.83
2023-03-29T10:25:08.646Z,2.72
2023-03-29T10:27:56.544Z,3.20
2023-03-29T10:30:38.969Z,17.58
2023-03-29T10:33:39.685Z,4.72
2023-03-29T10:36:25.526Z,3.25
2023-03-29T10:39:11.487Z,3.63
2023-03-29T10:41:52.746Z,4.60
2023-03-29T10:47:31.037Z,4.07
2023-03-29T10:50:20.644Z,3.90
2023-03-29T10:52:55.206Z,4.10
2023-03-29T10:55:39.800Z,3.97
2023-03-29T10:58:30.490Z,3.53
2023-03-29T11:01:22.419Z,5.45
2023-03-29T11:04:13.144Z,10.80
2023-03-29T11:07:02.678Z,3.80
2023-03-29T11:10:19.391Z,3.90
2023-03-29T11:13:05.532Z,5.75
2023-03-29T11:16:21.479Z,3.95
2023-03-29T11:19:39.297Z,10.23
2023-03-29T11:22:36.930Z,4.82
2023-03-29T11:25:30.981Z,4.28
2023-03-29T11:28:19.280Z,5.60
2023-03-29T11:31:12.061Z,4.63
2023-03-29T11:33:58.823Z,4.15
2023-03-29T11:36:56.134Z,4.93
2023-03-29T11:40:00.949Z,6.80
2023-03-29T11:42:44.191Z,7.05
2023-03-29T11:45:37.115Z,9.02
2023-03-29T11:48:24.189Z,6.75
2023-03-29T11:51:10.562Z,8.88
2023-03-29T11:53:59.690Z,4.78
2023-03-29T11:56:37.370Z,3.85
2023-03-29T11:59:20.052Z,4.25
2023-03-29T12:02:06.426Z,3.75
2023-03-29T12:05:04.340Z,4.07
2023-03-29T12:07:48.017Z,5.53
2023-03-29T12:10:29.242Z,5.57
2023-03-29T12:13:16.325Z,3.50
2023-03-29T12:16:01.368Z,3.50
2023-03-29T12:18:47.592Z,3.63
2023-03-29T12:21:26.964Z,3.28
2023-03-29T12:24:03.579Z,3.28
2023-03-29T12:27:08.567Z,4.72
2023-03-29T12:29:55.901Z,5.90
2023-03-29T12:32:52.646Z,3.38
2023-03-29T12:36:34.177Z,3.63
2023-03-29T12:40:05.588Z,4.72
2023-03-29T12:43:08.986Z,3.15
2023-03-29T12:46:13.924Z,2.72
2023-03-29T12:48:48.460Z,5.88
2023-03-29T12:51:43.934Z,7.32
2023-03-29T12:54:33.247Z,3.80
2023-03-29T12:57:29.230Z,3.30
2023-03-29T13:00:17.629Z,3.10
2023-03-29T13:03:10.956Z,2.88
2023-03-29T13:05:47.353Z,3.33
2023-03-29T13:08:44.749Z,2.80
2023-03-29T13:11:35.593Z,2.88
2023-03-29T13:14:18.648Z,3.10
2023-03-29T13:17:18.507Z,3.65
2023-03-29T13:20:07.205Z,3.15
2023-03-29T13:22:57.745Z,3.58
2023-03-29T13:26:06.707Z,3.35
2023-03-29T13:29:01.632Z,3.47
2023-03-29T13:31:46.789Z,3.20
2023-03-29T13:34:39.979Z,3.63
2023-03-29T13:37:32.334Z,3.55
2023-03-29T13:40:32.073Z,3.15
2023-03-29T13:43:19.706Z,4.03
2023-03-29T13:46:29.475Z,4.10
2023-03-29T13:49:18.110Z,3.45
2023-03-29T13:52:17.212Z,3.88
2023-03-29T13:55:05.968Z,3.70
2023-03-29T13:57:55.094Z,3.20
2023-03-29T14:00:50.632Z,3.42
2023-03-29T14:03:31.958Z,3.28
2023-03-29T14:06:16.010Z,3.42
2023-03-29T14:08:55.220Z,3.60
2023-03-29T14:11:34.864Z,5.40
2023-03-29T14:14:14.151Z,3.58
2023-03-29T14:16:50.055Z,4.28
2023-03-29T14:19:37.184Z,3.72
2023-03-29T14:22:28.454Z,3.95
2023-03-29T14:25:16.843Z,4.15
2023-03-29T14:27:48.863Z,5.15
2023-03-29T14:30:35.419Z,4.38
2023-03-29T14:33:29.677Z,3.10
2023-03-29T14:36:10.987Z,2.90
2023-03-29T14:38:53.585Z,3.67
2023-03-29T14:41:34.364Z,2.97
2023-03-29T14:44:13.374Z,3.35
2023-03-29T14:47:00.749Z,3.35
2023-03-29T14:49:42.137Z,3.35
2023-03-29T14:52:25.751Z,3.55
2023-03-29T14:55:10.141Z,4.43
2023-03-29T14:57:48.303Z,4.97
2023-03-29T15:00:42.621Z,4.05
2023-03-29T15:03:36.330Z,4.60
2023-03-29T15:06:21.101Z,3.78
2023-03-29T15:09:05.025Z,3.42
2023-03-29T15:11:44.219Z,4.03
2023-03-29T15:14:23.747Z,4.30
2023-03-29T15:17:10.273Z,10.27
2023-03-29T15:19:50.077Z,16.70
2023-03-29T15:22:27.856Z,6.53
2023-03-29T15:25:05.369Z,4.88
2023-03-29T15:28:01.546Z,3.50
2023-03-29T15:30:40.395Z,3.15
2023-03-29T15:33:23.208Z,4.20
2023-03-29T15:36:20.601Z,4.50
2023-03-29T15:39:04.739Z,7.78
2023-03-29T15:41:41.897Z,6.80
2023-03-29T15:44:19.753Z,4.60
2023-03-29T15:46:56.545Z,4.45
2023-03-29T15:49:37.669Z,3.80
2023-03-29T15:52:17.749Z,5.87
2023-03-29T15:54:58.891Z,5.22
2023-03-29T15:57:50.544Z,8.95
2023-03-29T16:00:31.622Z,4.28
2023-03-29T16:03:11.002Z,3.80
2023-03-29T16:05:52.028Z,3.72
2023-03-29T16:08:34.842Z,5.47
2023-03-29T16:11:15.212Z,4.65
2023-03-29T16:14:00.028Z,5.03
2023-03-29T16:16:37.160Z,4.15
2023-03-29T16:19:11.268Z,5.05
2023-03-29T16:21:48.340Z,4.57
2023-03-29T16:24:29.716Z,4.32
2023-03-29T16:27:13.300Z,4.10
2023-03-29T16:29:55.600Z,3.75
2023-03-29T16:32:34.906Z,3.47
2023-03-29T16:35:14.162Z,3.28
2023-03-29T16:37:54.762Z,3.30
2023-03-29T16:40:33.133Z,3.38
2023-03-29T16:43:22.275Z,3.55
2023-03-29T16:46:01.762Z,3.72
2023-03-29T16:48:42.353Z,3.67
2023-03-29T16:51:20.768Z,4.05
2023-03-29T16:54:02.638Z,3.65
2023-03-29T16:56:41.328Z,3.65
2023-03-29T16:59:39.279Z,4.10
2023-03-29T17:02:32.979Z,5.07
2023-03-29T17:05:18.269Z,5.72
2023-03-29T17:07:59.085Z,5.65
2023-03-29T17:10:42.001Z,5.90
2023-03-29T17:13:17.375Z,6.55
2023-03-29T17:16:05.421Z,7.80
2023-03-29T17:18:39.698Z,6.70
2023-03-29T17:21:20.054Z,6.60
2023-03-29T17:24:03.521Z,7.10
2023-03-29T17:26:38.257Z,6.88
2023-03-29T17:29:26.886Z,7.68
2023-03-29T17:32:05.032Z,6.82
2023-03-29T17:34:49.666Z,6.40
2023-03-29T17:37:34.404Z,7.70
2023-03-29T17:40:26.026Z,7.00
2023-03-29T17:43:15.810Z,8.57
2023-03-29T17:45:55.281Z,9.10
2023-03-29T17:48:41.263Z,10.95
2023-03-29T17:51:15.173Z,13.32
2023-03-29T17:54:02.404Z,11.98
2023-03-29T17:56:44.816Z,10.82
2023-03-29T17:59:21.074Z,10.38
2023-03-29T18:02:10.050Z,9.05
2023-03-29T18:04:55.175Z,9.18
2023-03-29T18:07:33.930Z,9.25
2023-03-29T18:10:27.401Z,10.15
2023-03-29T18:13:04.584Z,9.60
2023-03-29T18:15:55.057Z,10.82
2023-03-29T18:18:42.021Z,11.55
2023-03-29T18:21:23.699Z,12.02
2023-03-29T18:24:05.742Z,13.90
2023-03-29T18:26:51.938Z,13.15
2023-03-29T18:29:33.022Z,13.80
2023-03-29T18:32:13.785Z,12.67
2023-03-29T18:34:54.531Z,14.05
2023-03-29T18:40:17.313Z,12.60
2023-03-29T18:43:17.795Z,11.93
2023-03-29T18:45:55.799Z,12.05
2023-03-29T18:48:37.410Z,13.10
2023-03-29T18:51:25.785Z,11.15
2023-03-29T18:54:12.633Z,10.15
2023-03-29T18:56:56.051Z,10.18
2023-03-29T18:59:51.323Z,10.57
2023-03-29T19:02:33.768Z,11.73
2023-03-29T19:05:14.176Z,11.57
2023-03-29T19:08:04.853Z,12.57
2023-03-29T19:10:53.974Z,12.88
2023-03-29T19:13:28.027Z,12.32
2023-03-29T19:16:14.654Z,12.27
2023-03-29T19:18:50.971Z,12.95
2023-03-29T19:21:25.201Z,12.98
2023-03-29T19:24:07.967Z,14.85
2023-03-29T19:26:56.937Z,19.35
2023-03-29T19:29:37.352Z,18.92
2023-03-29T19:32:25.161Z,19.33
2023-03-29T19:35:08.151Z,17.73
2023-03-29T19:37:45.094Z,15.80
2023-03-29T19:40:22.756Z,15.20
2023-03-29T19:43:04.673Z,14.63
2023-03-29T19:45:43.357Z,14.15
2023-03-29T19:48:25.333Z,14.48
2023-03-29T19:51:06.054Z,14.77
2023-03-29T19:53:47.580Z,14.10
2023-03-29T19:56:38.756Z,14.75
2023-03-29T19:59:34.308Z,15.10
2023-03-29T20:02:14.824Z,15.75
2023-03-29T20:04:52.582Z,15.40
2023-03-29T20:07:29.879Z,15.70
2023-03-29T20:10:12.162Z,16.73
2023-03-29T20:12:57.731Z,18.58
2023-03-29T20:15:40.694Z,19.75
2023-03-29T20:18:24.834Z,20.48
2023-03-29T20:21:02.320Z,21.27
2023-03-29T20:23:40.557Z,22.13
2023-03-29T20:26:12.843Z,21.77
2023-03-29T20:28:46.010Z,22.02
2023-03-29T20:31:25.556Z,22.38
2023-03-29T20:34:09.655Z,22.35
2023-03-29T20:36:47.559Z,23.02
2023-03-29T20:39:28.412Z,21.60
2023-03-29T20:42:09.827Z,21.58
2023-03-29T20:44:52.553Z,19.85
2023-03-29T20:47:48.357Z,20.45
2023-03-29T20:50:40.286Z,18.90
2023-03-29T20:53:22.368Z,17.75
2023-03-29T20:55:59.574Z,15.85
2023-03-29T20:58:31.375Z,16.23
2023-03-29T21:01:08.159Z,16.45
2023-03-29T21:03:55.853Z,16.35
2023-03-29T21:06:48.390Z,15.15
2023-03-29T21:09:30.881Z,17.77
2023-03-29T21:12:12.227Z,16.83
2023-03-29T21:18:12.752Z,17.50
2023-03-29T21:20:54.038Z,18.60
2023-03-29T21:23:34.718Z,19.20
2023-03-29T21:26:13.600Z,18.90
2023-03-29T21:28:58.071Z,19.80
2023-03-29T21:31:41.661Z,18.45
2023-03-29T21:34:20.586Z,14.88
2023-03-29T21:37:03.530Z,15.13
2023-03-29T21:39:45.770Z,14.15
2023-03-29T21:42:30.462Z,14.07
2023-03-29T21:45:12.147Z,13.95
2023-03-29T21:48:02.775Z,13.82
2023-03-29T21:50:45.730Z,13.40
2023-03-29T21:53:25.909Z,12.98
2023-03-29T21:56:12.539Z,13.20
2023-03-29T21:58:51.514Z,12.90
2023-03-29T22:01:30.628Z,13.82
2023-03-29T22:04:25.516Z,12.40
2023-03-29T22:07:24.312Z,12.07
2023-03-29T22:10:11.317Z,12.70
2023-03-29T22:12:49.278Z,12.70
2023-03-29T22:15:30.664Z,15.07
2023-03-29T22:18:06.406Z,12.27
2023-03-29T22:20:47.923Z,12.82
2023-03-29T22:23:31.757Z,14.02
2023-03-29T22:26:19.870Z,13.05
2023-03-29T22:29:12.989Z,12.75
2023-03-29T22:31:53.796Z,13.48
2023-03-29T22:34:30.129Z,14.63
2023-03-29T22:37:18.157Z,14.93
2023-03-29T22:39:56.231Z,14.93
2023-03-29T22:42:47.100Z,15.85
2023-03-29T22:45:26.887Z,14.57
2023-03-29T22:48:03.320Z,16.58
2023-03-29T22:50:43.038Z,16.50
2023-03-29T22:53:28.239Z,16.67
2023-03-29T22:56:08.424Z,15.73
2023-03-29T22:58:49.286Z,16.67
2023-03-29T23:01:30.699Z,17.45
2023-03-29T23:04:02.985Z,16.20
2023-03-29T23:06:46.413Z,17.30
2023-03-29T23:09:31.726Z,16.88
2023-03-29T23:12:13.563Z,15.90
2023-03-29T23:15:08.506Z,15.40
2023-03-29T23:17:45.221Z,17.40
2023-03-29T23:20:22.626Z,16.40
2023-03-29T23:23:11.501Z,16.63
2023-03-29T23:25:50.345Z,17.40
2023-03-29T23:28:39.445Z,18.30
2023-03-29T23:31:24.824Z,17.42
2023-03-29T23:34:03.356Z,18.13
2023-03-29T23:36:48.917Z,17.73
2023-03-29T23:39:29.815Z,17.00
2023-03-29T23:42:05.676Z,18.23
2023-03-29T23:44:47.725Z,18.40
2023-03-29T23:47:33.418Z,18.23
2023-03-29T23:50:10.889Z,17.42
2023-03-29T23:52:51.728Z,18.17
2023-03-29T23:55:36.785Z,17.58
2023-03-29T23:58:17.331Z,16.77
